Аэропорт
Батуми (UGSB)

 UGSB / BUS
ЗЦ Ростов-на-Дону
Тбилиси* (UGGG)
Тбилиси (UGGG)
 41.61030, 41.59970  / 105 ft

 UGSB 161600Z 23016KT 9999 -RA OVC020 08/05 Q1025 R13/2///55 NOSIG
 UGSB 160500Z 1606/1706 25016KT 7000 -RA SCT012 BKN020 TX09/1610Z TN05/1700Z TEMPO 1606/1618 25026KT 4000 SHRA SCT007 OVC017CB TEMPO 1618/1706 25022G35KT 4000 SHRA SCT007 OVC017CB
UGSB_APP
Название сценария Тип сценария Flight Simulator 9 Flight Simulator X Prepar3D v2 Prepar3D v3 Prepar3D v4 xPlane
Batumi Freeware бесплатный

Международный аэропорт Батуми является вторым по пассажиропотоку в стране. Расположен на берегу Черного моря, с юга и востока окружен горами. Имеет статус внутреннего аэропорта Турции. Просим обратить внимание, что посадка производится только по курсу 130, а взлет только по курсу 310. 

Взлетно-посадочные полосы (ВПП)
Number Length Surface ILS
13 2620 м

асфальто-
бетон

CATI 110.3
31  

 



2019 © VATRUS division (Privacy Policy)